Time;durP1;ratioP1;P1;durP2;ratioP2;P2;SDS_P1;SDS_P2;PMS_P1;PMS_P2;Temp;Humidity;BMP_temperature;BMP_pressure;BME280_temperature;BME280_humidity;BME280_pressure;Samples;Min_cycle;Max_cycle;Signal;HPM_P1;HPM_P2
2022/06/30 00:00:16;;;;;;;12.10;9.60;;;;;;;21.72;70.21;100814.96;107401;1247;62678;-72
2022/06/30 00:03:03;;;;;;;11.80;9.70;;;;;;;21.71;70.31;100804.97;107454;1247;61169;-70
2022/06/30 00:05:31;;;;;;;12.80;10.30;;;;;;;21.71;70.37;100811.84;107462;1247;74059;-72
2022/06/30 00:08:01;;;;;;;10.80;9.70;;;;;;;21.71;70.35;100810.77;107075;1250;72453;-73
2022/06/30 00:10:30;;;;;;;12.20;10.10;;;;;;;21.69;70.26;100805.65;107466;1247;70269;-73
2022/06/30 00:12:59;;;;;;;10.50;9.50;;;;;;;21.68;70.50;100809.92;107284;1247;72676;-69
2022/06/30 00:15:28;;;;;;;12.00;9.70;;;;;;;21.66;70.44;100808.58;107300;1248;62012;-70
2022/06/30 00:17:57;;;;;;;10.40;9.30;;;;;;;21.64;70.48;100807.70;107327;1248;61772;-70
2022/06/30 00:20:25;;;;;;;11.50;9.60;;;;;;;21.62;70.60;100802.95;107310;1247;74560;-70
2022/06/30 00:22:54;;;;;;;12.80;9.80;;;;;;;21.59;70.92;100800.41;107297;1248;62038;-71
2022/06/30 00:25:23;;;;;;;11.00;9.30;;;;;;;21.56;70.99;100800.53;107311;1247;60058;-70
2022/06/30 00:27:52;;;;;;;13.40;9.60;;;;;;;21.55;70.96;100802.09;107284;1247;63774;-69
2022/06/30 00:30:21;;;;;;;15.20;9.80;;;;;;;21.55;70.92;100803.48;107280;1248;59495;-70
2022/06/30 00:32:50;;;;;;;11.10;9.90;;;;;;;21.55;70.90;100807.20;107440;1247;59567;-70
2022/06/30 00:35:19;;;;;;;11.60;9.60;;;;;;;21.55;70.77;100809.47;107388;1245;62977;-68
2022/06/30 00:37:48;;;;;;;12.90;9.60;;;;;;;21.54;71.14;100809.11;107413;1247;71989;-69
2022/06/30 00:40:17;;;;;;;13.40;10.00;;;;;;;21.53;70.99;100812.95;107370;1248;68393;-68
2022/06/30 00:42:46;;;;;;;10.90;9.40;;;;;;;21.51;71.07;100814.96;107177;1250;63650;-68
2022/06/30 00:45:15;;;;;;;13.20;9.80;;;;;;;21.50;71.16;100817.06;107450;1247;61770;-69
2022/06/30 00:47:44;;;;;;;11.20;9.10;;;;;;;21.50;71.02;100820.91;107406;1247;61491;-69
2022/06/30 00:50:13;;;;;;;11.30;9.60;;;;;;;21.50;71.07;100820.55;107444;1247;74864;-68
2022/06/30 00:52:43;;;;;;;11.60;10.10;;;;;;;21.49;71.12;100819.05;107475;1247;73138;-71
2022/06/30 00:55:15;;;;;;;12.10;9.80;;;;;;;21.50;71.14;100820.27;107260;1250;68567;-69
2022/06/30 00:57:44;;;;;;;11.60;10.00;;;;;;;21.50;71.24;100816.53;107218;1247;73525;-69
2022/06/30 01:00:14;;;;;;;11.50;9.50;;;;;;;21.51;71.32;100808.75;107456;1247;59648;-69
2022/06/30 01:02:44;;;;;;;11.30;9.70;;;;;;;21.52;70.28;100807.58;107508;1247;60401;-68
2022/06/30 01:05:14;;;;;;;14.30;9.70;;;;;;;21.49;70.75;100808.76;109752;1246;64234;-69
2022/06/30 01:07:43;;;;;;;14.20;9.80;;;;;;;21.48;70.54;100809.71;108137;1246;72217;-69
2022/06/30 01:13:00;;;;;;;13.20;10.30;;;;;;;21.45;70.86;100808.77;107505;1247;73608;-70
2022/06/30 01:15:29;;;;;;;11.30;9.80;;;;;;;21.43;71.28;100801.70;107471;1247;59667;-69
2022/06/30 01:17:59;;;;;;;11.90;10.50;;;;;;;21.42;71.51;100800.22;107505;1247;62773;-70
2022/06/30 01:20:31;;;;;;;15.80;10.20;;;;;;;21.42;71.39;100796.09;107351;1247;75078;-70
2022/06/30 01:23:03;;;;;;;12.00;10.70;;;;;;;21.41;71.57;100798.73;107419;1247;72377;-76
2022/06/30 01:25:34;;;;;;;12.80;10.50;;;;;;;21.39;70.45;100799.31;107462;1247;71264;-72
2022/06/30 01:28:03;;;;;;;13.40;10.40;;;;;;;21.31;70.93;100800.73;107358;1248;72946;-70
2022/06/30 01:30:32;;;;;;;13.30;10.50;;;;;;;21.24;71.85;100799.85;107379;1247;59552;-75
2022/06/30 01:33:01;;;;;;;12.10;10.30;;;;;;;21.16;72.47;100799.20;107514;1247;59593;-70
2022/06/30 01:35:30;;;;;;;13.30;9.90;;;;;;;21.09;72.82;100799.29;107485;1247;62948;-70
2022/06/30 01:38:01;;;;;;;15.50;11.10;;;;;;;21.03;73.25;100802.09;107330;1247;60722;-70
2022/06/30 01:40:35;;;;;;;11.20;10.00;;;;;;;20.99;73.04;100796.86;107340;1247;59624;-68
2022/06/30 01:43:06;;;;;;;13.50;10.10;;;;;;;20.94;73.42;100795.64;107562;1247;62889;-70
2022/06/30 01:45:35;;;;;;;12.20;10.50;;;;;;;20.88;73.42;100793.29;107574;1247;62210;-68
2022/06/30 01:48:05;;;;;;;12.80;10.40;;;;;;;20.81;73.62;100796.59;107353;1248;59394;-69
2022/06/30 01:50:35;;;;;;;12.00;10.20;;;;;;;20.71;74.16;100799.80;107607;1247;63004;-70
2022/06/30 01:53:04;;;;;;;11.90;10.70;;;;;;;20.67;74.25;100799.53;107306;1247;72232;-71
2022/06/30 01:55:33;;;;;;;13.20;10.80;;;;;;;20.67;74.12;100797.58;107593;1247;59923;-70
2022/06/30 01:58:03;;;;;;;13.50;10.60;;;;;;;20.65;74.39;100795.16;107329;1248;63061;-70
2022/06/30 02:00:32;;;;;;;11.70;10.50;;;;;;;20.61;74.45;100798.89;107560;1247;62984;-70
2022/06/30 02:03:02;;;;;;;11.90;10.10;;;;;;;20.62;73.84;100799.52;107483;1246;62110;-69
2022/06/30 02:05:30;;;;;;;13.50;10.80;;;;;;;20.63;73.98;100800.50;107458;1247;73820;-68
2022/06/30 02:07:59;;;;;;;13.20;11.00;;;;;;;20.60;73.51;100799.16;107300;1248;71602;-70
2022/06/30 02:10:28;;;;;;;13.10;11.00;;;;;;;20.54;74.73;100800.08;107414;1248;59769;-70
2022/06/30 02:12:57;;;;;;;14.90;10.80;;;;;;;20.49;75.19;100797.48;107404;1247;74355;-69
2022/06/30 02:15:36;;;;;;;14.80;11.60;;;;;;;20.45;75.19;100800.20;107473;1247;63975;-70
2022/06/30 02:18:08;;;;;;;12.70;11.00;;;;;;;20.46;75.32;100801.40;107506;1247;61043;-71
2022/06/30 02:20:37;;;;;;;13.20;10.60;;;;;;;20.48;75.27;100795.48;107338;1247;73437;-69
2022/06/30 02:23:06;;;;;;;14.50;10.90;;;;;;;20.49;75.26;100798.69;107333;1247;72751;-67
2022/06/30 02:25:35;;;;;;;13.50;10.70;;;;;;;20.48;75.27;100800.74;107421;1247;71273;-70
2022/06/30 02:28:05;;;;;;;14.70;11.20;;;;;;;20.45;75.47;100804.26;107196;1247;74063;-69
2022/06/30 02:30:35;;;;;;;13.40;10.70;;;;;;;20.43;75.69;100797.30;107355;1247;61506;-68
2022/06/30 02:33:03;;;;;;;14.60;11.10;;;;;;;20.41;75.83;100796.60;107478;1246;61698;-72
2022/06/30 02:35:32;;;;;;;18.00;11.20;;;;;;;20.36;75.88;100800.77;107401;1248;64778;-69
2022/06/30 02:38:10;;;;;;;12.80;11.40;;;;;;;20.32;75.46;100800.15;107393;1247;72211;-70
2022/06/30 02:40:39;;;;;;;11.30;10.10;;;;;;;20.28;75.55;100803.52;107462;1247;59716;-69
2022/06/30 02:43:08;;;;;;;12.50;10.50;;;;;;;20.24;76.10;100803.30;107362;1247;64084;-69
2022/06/30 02:45:37;;;;;;;13.10;10.50;;;;;;;20.21;76.24;100798.30;107445;1247;62139;-69
2022/06/30 02:48:06;;;;;;;14.90;11.30;;;;;;;20.21;76.40;100799.36;107498;1247;59198;-70
2022/06/30 02:50:35;;;;;;;15.20;11.70;;;;;;;20.22;76.12;100796.02;107545;1247;64099;-69
2022/06/30 02:53:04;;;;;;;13.70;10.60;;;;;;;20.27;75.96;100796.03;107510;1247;71297;-70
2022/06/30 02:55:33;;;;;;;13.90;11.00;;;;;;;20.31;75.93;100795.09;107470;1247;59627;-70
2022/06/30 02:58:02;;;;;;;15.00;11.60;;;;;;;20.35;75.72;100796.70;107385;1247;63401;-69
2022/06/30 03:00:31;;;;;;;16.10;11.50;;;;;;;20.40;75.54;100798.23;107319;1248;58392;-73
2022/06/30 03:03:00;;;;;;;15.60;11.70;;;;;;;20.45;75.58;100806.45;107472;1248;60334;-71
2022/06/30 03:05:29;;;;;;;14.30;12.00;;;;;;;20.48;75.48;100807.98;107583;1247;75468;-69
2022/06/30 03:07:58;;;;;;;19.20;11.90;;;;;;;20.55;75.39;100808.30;107494;1247;71802;-69
2022/06/30 03:10:27;;;;;;;14.60;12.10;;;;;;;20.62;75.23;100807.31;107536;1246;61421;-66
2022/06/30 03:12:55;;;;;;;17.80;13.00;;;;;;;20.71;74.99;100806.70;107464;1247;74995;-67
2022/06/30 03:15:24;;;;;;;19.90;12.80;;;;;;;20.77;74.54;100804.88;107569;1247;62737;-67
2022/06/30 03:17:56;;;;;;;18.10;13.50;;;;;;;20.84;74.61;100804.20;107682;1247;61241;-67
2022/06/30 03:20:25;;;;;;;18.90;12.50;;;;;;;20.92;74.35;100805.52;107495;1250;64576;-65
2022/06/30 03:22:54;;;;;;;20.90;12.40;;;;;;;21.00;73.86;100812.24;107454;1247;60987;-65
2022/06/30 03:25:23;;;;;;;18.00;12.90;;;;;;;21.03;73.29;100812.67;107441;1247;59530;-67
2022/06/30 03:27:52;;;;;;;17.50;12.90;;;;;;;21.06;72.90;100815.47;107398;1247;62570;-67
2022/06/30 03:30:21;;;;;;;20.50;13.60;;;;;;;21.10;72.98;100814.85;107405;1247;58206;-66
2022/06/30 03:32:50;;;;;;;18.50;14.40;;;;;;;21.15;72.58;100814.98;107386;1248;59106;-69
2022/06/30 03:35:19;;;;;;;19.40;12.90;;;;;;;21.21;72.62;100820.02;107407;1247;63754;-68
2022/06/30 03:37:48;;;;;;;21.40;12.70;;;;;;;21.27;72.85;100824.06;107543;1247;61615;-69
2022/06/30 03:40:17;;;;;;;16.60;12.50;;;;;;;21.36;73.00;100826.23;107556;1247;59881;-68
2022/06/30 03:42:46;;;;;;;21.30;14.00;;;;;;;21.45;72.86;100821.52;107616;1247;72362;-66
2022/06/30 03:45:15;;;;;;;21.00;12.80;;;;;;;21.54;72.22;100824.02;107576;1247;62946;-85
2022/06/30 03:47:44;;;;;;;20.10;13.80;;;;;;;21.62;71.98;100824.46;107523;1247;59264;-64
2022/06/30 03:50:13;;;;;;;18.10;12.30;;;;;;;21.72;71.84;100825.11;107537;1247;62977;-67
2022/06/30 03:52:42;;;;;;;19.10;12.90;;;;;;;21.77;71.70;100820.72;107459;1247;61627;-66
2022/06/30 03:55:11;;;;;;;18.90;14.00;;;;;;;21.76;71.82;100822.10;107440;1247;68057;-67
2022/06/30 03:57:40;;;;;;;21.60;12.60;;;;;;;21.75;71.96;100819.02;107618;1247;63924;-67
2022/06/30 04:00:10;;;;;;;17.70;13.60;;;;;;;21.71;72.10;100817.91;107619;1247;60115;-67
2022/06/30 04:02:39;;;;;;;18.20;13.40;;;;;;;21.65;72.38;100817.85;107674;1247;60458;-67
2022/06/30 04:05:08;;;;;;;14.70;13.20;;;;;;;21.67;72.47;100822.63;106941;1247;823621;-66
2022/06/30 04:07:45;;;;;;;20.90;13.90;;;;;;;21.67;72.61;100826.89;107572;1247;61245;-67
2022/06/30 04:10:14;;;;;;;25.50;14.30;;;;;;;21.65;72.58;100830.11;107283;1250;59510;-66
2022/06/30 04:12:44;;;;;;;20.80;15.20;;;;;;;21.69;72.65;100833.24;107521;1249;73786;-67
2022/06/30 04:15:12;;;;;;;19.60;15.10;;;;;;;21.73;72.48;100833.07;107361;1248;62742;-67
2022/06/30 04:17:41;;;;;;;19.20;14.00;;;;;;;21.79;72.37;100830.74;107632;1247;60890;-68
2022/06/30 04:20:17;;;;;;;16.30;13.30;;;;;;;21.92;71.81;100830.00;107571;1247;64279;-69
2022/06/30 04:22:49;;;;;;;19.40;14.30;;;;;;;22.06;71.47;100829.60;107564;1247;61247;-69
2022/06/30 04:25:19;;;;;;;19.10;13.50;;;;;;;22.17;71.18;100830.02;107275;1250;59598;-67
2022/06/30 04:27:52;;;;;;;18.50;13.70;;;;;;;22.27;70.75;100828.64;107551;1246;63290;-67
2022/06/30 04:33:09;;;;;;;19.40;14.70;;;;;;;22.38;70.33;100835.75;107326;1247;62336;-67
2022/06/30 04:35:38;;;;;;;21.90;15.70;;;;;;;22.48;69.81;100831.83;107680;1247;73213;-68
2022/06/30 04:38:07;;;;;;;22.10;14.90;;;;;;;22.57;69.22;100830.01;107625;1247;72054;-67
2022/06/30 04:43:23;;;;;;;19.30;15.20;;;;;;;22.74;68.84;100830.57;107394;1248;62784;-68
2022/06/30 04:45:52;;;;;;;18.50;14.40;;;;;;;22.89;68.24;100829.98;107569;1247;59652;-70
2022/06/30 04:48:21;;;;;;;24.10;15.00;;;;;;;23.08;67.44;100828.39;107613;1247;60456;-67
2022/06/30 04:50:50;;;;;;;16.00;13.60;;;;;;;23.21;66.74;100824.08;107671;1247;63500;-68
2022/06/30 04:53:19;;;;;;;19.10;14.60;;;;;;;23.32;66.45;100818.25;107610;1247;61665;-67
2022/06/30 04:55:49;;;;;;;20.40;14.70;;;;;;;23.39;66.08;100822.65;107633;1247;68456;-69
2022/06/30 04:58:17;;;;;;;19.00;14.60;;;;;;;23.49;65.64;100824.95;107574;1247;74288;-67
2022/06/30 05:00:47;;;;;;;17.90;14.80;;;;;;;23.57;65.52;100829.84;107631;1248;61616;-67
2022/06/30 05:03:16;;;;;;;21.80;15.00;;;;;;;23.64;64.29;100827.73;107636;1247;58223;-67
2022/06/30 05:05:45;;;;;;;18.40;14.00;;;;;;;23.78;63.56;100833.16;107554;1247;63073;-68
2022/06/30 05:08:14;;;;;;;26.30;15.10;;;;;;;23.93;63.50;100834.02;107668;1246;60955;-64
2022/06/30 05:10:43;;;;;;;19.90;14.20;;;;;;;24.08;63.25;100837.27;107761;1247;59107;-67
2022/06/30 05:13:12;;;;;;;26.30;14.60;;;;;;;24.19;61.89;100836.17;107733;1247;63244;-65
2022/06/30 05:15:41;;;;;;;22.70;15.00;;;;;;;24.34;62.19;100833.90;107618;1247;59596;-66
2022/06/30 05:18:11;;;;;;;21.30;13.70;;;;;;;24.48;61.72;100832.86;107664;1247;59504;-64
2022/06/30 05:20:41;;;;;;;16.80;12.90;;;;;;;24.65;61.08;100831.94;107571;1247;74822;-68
2022/06/30 05:23:11;;;;;;;18.30;13.60;;;;;;;24.78;59.94;100833.21;107616;1247;62371;-69
2022/06/30 05:28:27;;;;;;;18.50;12.20;;;;;;;25.05;59.25;100832.27;107456;1247;62927;-66
2022/06/30 05:30:56;;;;;;;17.00;13.60;;;;;;;25.18;58.54;100830.75;107301;1250;59555;-69
2022/06/30 05:33:25;;;;;;;18.70;13.10;;;;;;;25.32;58.00;100832.86;107421;1248;57991;-65
2022/06/30 05:35:55;;;;;;;19.10;13.90;;;;;;;25.42;57.63;100831.55;107367;1247;62992;-67
2022/06/30 05:38:24;;;;;;;19.70;13.30;;;;;;;25.52;57.18;100832.88;107394;1247;72226;-64
2022/06/30 05:40:53;;;;;;;18.60;13.30;;;;;;;25.62;57.38;100835.01;107418;1247;70598;-66
2022/06/30 05:43:22;;;;;;;21.10;13.70;;;;;;;25.70;57.06;100829.37;107343;1247;74564;-68
2022/06/30 05:45:53;;;;;;;17.10;14.10;;;;;;;25.82;56.31;100829.02;107273;1247;60798;-65
2022/06/30 05:48:22;;;;;;;16.00;13.50;;;;;;;25.91;56.04;100824.22;107471;1247;61733;-67
2022/06/30 05:50:51;;;;;;;16.90;12.30;;;;;;;26.02;56.41;100825.05;107347;1248;74619;-64
2022/06/30 05:53:20;;;;;;;18.30;13.80;;;;;;;26.13;55.38;100821.45;107185;1248;73058;-66
2022/06/30 05:55:49;;;;;;;17.30;13.70;;;;;;;26.16;54.29;100819.88;107462;1247;71873;-67
2022/06/30 05:58:18;;;;;;;20.40;14.30;;;;;;;26.28;54.19;100825.48;107169;1248;76704;-62
2022/06/30 06:00:47;;;;;;;17.90;13.50;;;;;;;26.50;54.16;100827.56;107384;1247;59636;-66
2022/06/30 06:03:17;;;;;;;17.60;13.70;;;;;;;26.62;54.12;100829.73;107592;1247;58371;-64
2022/06/30 06:05:46;;;;;;;17.50;13.20;;;;;;;26.73;53.86;100826.97;107601;1247;63752;-66
2022/06/30 06:08:15;;;;;;;21.10;12.30;;;;;;;26.83;53.62;100824.82;107651;1247;62050;-64
2022/06/30 06:10:44;;;;;;;15.60;11.80;;;;;;;26.98;52.94;100830.13;107560;1247;69908;-64
2022/06/30 06:13:14;;;;;;;19.30;12.10;;;;;;;27.07;52.60;100824.65;107151;1248;75053;-69
2022/06/30 06:15:43;;;;;;;13.90;11.60;;;;;;;27.19;52.31;100825.56;107487;1247;59561;-70
2022/06/30 06:18:12;;;;;;;17.20;12.70;;;;;;;27.33;52.00;100820.17;107998;1247;61239;-67
2022/06/30 06:20:42;;;;;;;16.90;12.80;;;;;;;27.43;51.71;100820.17;107691;1247;74415;-68
2022/06/30 06:23:31;;;;;;;19.30;11.90;;;;;;;27.53;51.63;100813.77;107614;1247;61586;-67
2022/06/30 06:26:00;;;;;;;18.80;12.10;;;;;;;27.71;51.54;100817.22;107516;1247;59272;-67
2022/06/30 06:31:18;;;;;;;13.90;11.90;;;;;;;27.95;50.60;100822.06;107278;1250;57941;-65
2022/06/30 06:33:48;;;;;;;16.30;12.50;;;;;;;28.04;50.37;100823.60;107505;1248;58340;-65
2022/06/30 06:36:17;;;;;;;14.60;12.10;;;;;;;28.17;49.91;100822.33;107398;1250;65370;-68
2022/06/30 06:38:46;;;;;;;17.30;12.80;;;;;;;28.07;49.54;100825.46;107498;1249;60728;-66
2022/06/30 06:41:15;;;;;;;17.20;13.00;;;;;;;28.19;49.84;100822.42;107632;1247;59218;-66
2022/06/30 06:43:44;;;;;;;14.90;12.80;;;;;;;28.37;49.14;100819.22;107188;1250;62481;-66
2022/06/30 06:46:13;;;;;;;16.90;13.30;;;;;;;28.47;49.02;100825.17;107595;1247;59576;-70
2022/06/30 06:48:43;;;;;;;16.00;12.90;;;;;;;28.58;48.44;100825.34;107579;1247;61619;-69
2022/06/30 06:51:12;;;;;;;19.20;13.90;;;;;;;28.71;48.58;100824.25;107583;1247;64454;-67
2022/06/30 06:53:41;;;;;;;14.50;13.00;;;;;;;28.74;48.43;100822.48;107645;1247;61696;-67
2022/06/30 06:56:11;;;;;;;16.40;12.90;;;;;;;28.75;48.04;100820.34;107563;1247;60030;-67
2022/06/30 06:58:40;;;;;;;13.60;11.80;;;;;;;28.88;48.17;100819.79;107209;1248;73921;-73
2022/06/30 07:01:10;;;;;;;13.30;11.80;;;;;;;28.99;47.63;100817.77;107330;1250;62014;-73
2022/06/30 07:03:39;;;;;;;14.70;12.60;;;;;;;29.13;47.25;100818.38;107607;1247;61933;-75
2022/06/30 07:06:08;;;;;;;15.30;10.90;;;;;;;29.27;47.48;100816.70;107362;1249;74939;-73
2022/06/30 07:08:39;;;;;;;12.30;9.90;;;;;;;29.45;46.02;100813.85;107464;1249;61993;-76
2022/06/30 07:11:09;;;;;;;13.90;10.40;;;;;;;29.55;45.40;100813.42;107506;1248;71474;-75
2022/06/30 07:13:38;;;;;;;16.30;10.20;;;;;;;29.66;44.25;100812.85;107669;1247;74376;-79
2022/06/30 07:16:07;;;;;;;14.90;10.60;;;;;;;29.70;44.26;100814.48;107591;1247;59460;-74
2022/06/30 07:18:36;;;;;;;17.40;11.70;;;;;;;29.87;44.43;100812.45;107699;1247;61226;-77
2022/06/30 07:21:05;;;;;;;13.00;11.40;;;;;;;29.97;44.19;100817.63;107551;1250;74291;-72
2022/06/30 07:23:33;;;;;;;13.90;11.90;;;;;;;29.95;43.92;100816.34;107631;1247;72791;-72
2022/06/30 07:26:02;;;;;;;12.10;10.50;;;;;;;30.03;43.92;100816.38;107634;1248;61634;-78
2022/06/30 07:28:31;;;;;;;13.10;10.60;;;;;;;30.17;43.55;100816.73;107581;1248;62499;-74
2022/06/30 07:31:21;;;;;;;13.20;10.20;;;;;;;30.32;43.59;100814.40;107572;1249;59628;-72
2022/06/30 07:33:50;;;;;;;14.70;10.60;;;;;;;30.45;43.11;100817.89;107604;1249;59088;-71
2022/06/30 07:36:19;;;;;;;12.10;10.40;;;;;;;30.55;42.64;100821.70;107433;1248;74404;-73
2022/06/30 07:38:49;;;;;;;12.30;11.00;;;;;;;30.74;42.09;100822.14;107634;1246;61974;-71
2022/06/30 07:41:19;;;;;;;12.50;11.00;;;;;;;30.73;42.35;100823.16;107518;1248;59074;-71
2022/06/30 07:43:48;;;;;;;13.60;12.00;;;;;;;30.88;41.90;100817.64;107509;1251;62280;-74
2022/06/30 07:46:17;;;;;;;15.70;11.30;;;;;;;30.93;42.00;100817.19;107473;1250;57929;-72
2022/06/30 07:48:48;;;;;;;15.30;11.50;;;;;;;31.00;41.58;100816.98;107466;1250;57916;-72
2022/06/30 07:51:18;;;;;;;16.50;11.70;;;;;;;31.18;41.24;100818.34;107479;1248;74433;-72
2022/06/30 07:53:49;;;;;;;14.70;11.40;;;;;;;31.27;40.53;100820.92;107662;1248;61257;-72
2022/06/30 07:56:18;;;;;;;14.80;10.90;;;;;;;31.49;39.87;100815.18;107727;1247;60574;-72
2022/06/30 07:58:47;;;;;;;14.30;10.90;;;;;;;31.53;38.91;100814.05;107537;1247;73425;-73
2022/06/30 08:01:19;;;;;;;16.40;11.30;;;;;;;31.53;38.74;100809.73;107769;1247;59622;-75
2022/06/30 08:03:48;;;;;;;14.50;10.60;;;;;;;31.68;39.26;100808.65;107738;1247;61408;-70
2022/06/30 08:06:17;;;;;;;12.80;11.50;;;;;;;31.88;38.61;100809.45;107740;1247;74877;-73
2022/06/30 08:08:46;;;;;;;16.50;11.70;;;;;;;32.02;37.92;100809.61;107722;1247;72580;-73
2022/06/30 08:11:14;;;;;;;13.00;11.30;;;;;;;32.08;37.83;100804.47;107699;1248;70895;-73
2022/06/30 08:13:43;;;;;;;13.70;11.10;;;;;;;32.19;37.54;100805.31;107714;1248;63907;-74
2022/06/30 08:16:14;;;;;;;12.60;11.00;;;;;;;32.14;37.84;100805.35;107495;1250;59235;-73
2022/06/30 08:18:43;;;;;;;12.30;11.00;;;;;;;32.25;37.11;100808.14;107421;1247;60862;-72
2022/06/30 08:21:12;;;;;;;14.80;11.20;;;;;;;32.26;36.99;100805.99;107378;1250;63623;-71
2022/06/30 08:23:41;;;;;;;14.20;11.40;;;;;;;32.22;37.37;100803.56;107569;1247;60966;-70
2022/06/30 08:26:10;;;;;;;13.80;11.30;;;;;;;32.38;37.46;100804.38;107331;1250;59889;-73
2022/06/30 08:28:39;;;;;;;15.00;11.30;;;;;;;32.47;36.58;100804.37;107557;1247;73413;-79
2022/06/30 08:31:16;;;;;;;12.20;11.00;;;;;;;32.78;36.60;100806.36;107478;1248;59714;-71
2022/06/30 08:33:45;;;;;;;18.60;11.00;;;;;;;32.92;35.52;100801.33;107683;1247;61091;-71
2022/06/30 08:36:13;;;;;;;13.30;11.00;;;;;;;33.21;36.25;100805.85;107458;1248;74311;-71
2022/06/30 08:38:43;;;;;;;12.80;11.50;;;;;;;33.51;36.22;100806.73;107557;1250;71720;-75
2022/06/30 08:44:02;;;;;;;12.60;10.70;;;;;;;33.96;34.81;100799.60;107705;1248;75692;-72
2022/06/30 08:46:33;;;;;;;14.00;10.90;;;;;;;33.84;34.35;100803.80;107468;1250;61899;-72
2022/06/30 08:49:02;;;;;;;14.40;10.30;;;;;;;33.88;34.43;100805.84;107390;1251;60365;-71
2022/06/30 08:51:34;;;;;;;16.20;10.80;;;;;;;33.89;34.25;100805.34;107453;1250;73482;-77
2022/06/30 08:54:06;;;;;;;11.60;10.00;;;;;;;34.03;33.78;100803.09;107595;1248;73055;-76
2022/06/30 08:56:36;;;;;;;15.70;10.80;;;;;;;34.19;34.42;100803.27;107461;1249;61539;-73
2022/06/30 08:59:05;;;;;;;12.60;10.00;;;;;;;33.77;33.95;100801.38;107642;1248;73908;-72
2022/06/30 09:01:35;;;;;;;10.80;9.80;;;;;;;33.95;33.58;100803.36;107614;1247;61867;-70
2022/06/30 09:04:07;;;;;;;12.40;9.40;;;;;;;34.05;33.09;100800.45;107421;1248;59602;-74
2022/06/30 09:06:36;;;;;;;11.00;9.00;;;;;;;34.15;32.78;100800.92;107627;1248;74363;-73
2022/06/30 09:09:06;;;;;;;13.70;8.70;;;;;;;34.35;32.03;100802.25;107511;1251;61946;-69
2022/06/30 09:11:56;;;;;;;14.00;9.10;;;;;;;34.63;32.18;100798.98;107469;1250;70617;-71
2022/06/30 09:14:37;;;;;;;14.60;8.80;;;;;;;34.84;31.62;100804.11;107714;1247;63229;-73
2022/06/30 09:17:09;;;;;;;14.90;9.30;;;;;;;34.97;31.90;100800.28;107751;1248;59661;-70
2022/06/30 09:20:02;;;;;;;10.90;8.70;;;;;;;34.99;31.42;100794.15;107503;1250;61306;-69
2022/06/30 09:22:35;;;;;;;10.40;8.50;;;;;;;34.97;31.73;100794.09;107536;1249;65080;-73
2022/06/30 09:25:12;;;;;;;10.70;8.50;;;;;;;35.13;31.20;100791.81;107651;1247;60879;-73
2022/06/30 09:27:43;;;;;;;11.00;8.40;;;;;;;35.16;31.32;100791.88;107518;1249;68916;-75
2022/06/30 09:30:16;;;;;;;8.60;7.80;;;;;;;34.83;31.17;100788.30;107590;1248;63203;-72
2022/06/30 09:33:07;;;;;;;9.30;7.90;;;;;;;34.83;31.15;100792.05;107396;1251;61390;-75
2022/06/30 09:35:38;;;;;;;11.20;8.10;;;;;;;35.13;31.37;100783.67;107642;1247;60696;-69
2022/06/30 09:38:14;;;;;;;9.70;7.50;;;;;;;35.11;30.90;100783.73;107450;1248;63439;-72
2022/06/30 09:41:00;;;;;;;10.80;7.90;;;;;;;35.23;30.54;100782.91;107616;1249;60870;-72
2022/06/30 09:43:36;;;;;;;9.10;7.80;;;;;;;35.17;29.91;100777.81;107644;1247;70782;-72
2022/06/30 09:46:08;;;;;;;12.70;7.60;;;;;;;35.09;30.36;100767.50;107522;1247;74609;-72
2022/06/30 09:48:40;;;;;;;9.30;7.30;;;;;;;35.21;29.84;100759.39;107577;1248;59612;-72
2022/06/30 09:51:08;;;;;;;;;;;;;;;35.06;29.76;100753.39;107667;1248;61321;-72
2022/06/30 09:53:37;;;;;;;8.60;7.70;;;;;;;35.08;29.77;100749.81;107606;1248;63347;-74
2022/06/30 09:56:16;;;;;;;8.40;7.20;;;;;;;35.21;29.60;100747.30;107629;1246;61603;-71
2022/06/30 09:58:45;;;;;;;7.70;7.00;;;;;;;35.39;29.72;100742.75;107598;1248;69681;-77
2022/06/30 10:01:13;;;;;;;9.00;7.10;;;;;;;35.02;29.46;100737.94;107635;1247;73890;-74
2022/06/30 10:03:48;;;;;;;9.40;7.10;;;;;;;34.98;29.59;100732.86;107625;1248;59675;-74
2022/06/30 10:06:18;;;;;;;9.60;6.30;;;;;;;34.98;29.06;100727.81;107272;1251;60511;-71
2022/06/30 10:08:47;;;;;;;8.00;6.80;;;;;;;35.25;28.83;100733.44;107617;1248;76289;-69
2022/06/30 10:11:17;;;;;;;8.20;6.20;;;;;;;35.30;28.44;100726.91;107622;1248;61947;-75
2022/06/30 10:13:47;;;;;;;8.00;6.40;;;;;;;35.17;28.31;100723.52;107670;1248;70596;-72
2022/06/30 10:16:17;;;;;;;8.90;6.40;;;;;;;35.27;28.15;100718.89;107477;1248;73731;-73
2022/06/30 10:18:46;;;;;;;7.30;6.40;;;;;;;35.37;27.90;100716.10;107400;1250;59601;-74
2022/06/30 10:21:17;;;;;;;7.40;6.20;;;;;;;35.45;28.10;100708.53;107493;1251;59591;-75
2022/06/30 10:23:46;;;;;;;8.80;6.00;;;;;;;35.67;27.89;100710.64;107375;1251;74458;-74
2022/06/30 10:29:04;;;;;;;7.10;5.50;;;;;;;36.26;26.99;100705.77;107636;1248;70499;-75
2022/06/30 10:32:09;;;;;;;9.40;6.20;;;;;;;36.48;26.40;100697.66;107406;1248;74479;-78
2022/06/30 10:34:54;;;;;;;8.70;6.20;;;;;;;36.73;26.58;100692.45;107527;1248;59452;-76
2022/06/30 10:37:39;;;;;;;7.00;6.00;;;;;;;36.83;26.39;100688.51;107586;1248;59527;-75
2022/06/30 10:40:38;;;;;;;8.90;6.20;;;;;;;36.70;26.57;100681.48;107595;1248;67093;-69
2022/06/30 10:43:07;;;;;;;8.50;6.20;;;;;;;36.45;27.38;100676.02;107456;1247;62931;-72
2022/06/30 10:45:53;;;;;;;8.80;6.40;;;;;;;36.46;27.59;100671.67;107676;1248;59841;-75
2022/06/30 10:48:23;;;;;;;8.00;6.60;;;;;;;36.77;27.49;100665.48;107481;1251;62500;-72
2022/06/30 10:50:52;;;;;;;9.40;6.20;;;;;;;36.97;27.07;100667.52;107648;1247;60538;-74
2022/06/30 10:53:36;;;;;;;8.00;6.30;;;;;;;36.71;26.67;100660.48;107555;1248;59167;-72
2022/06/30 10:56:06;;;;;;;7.90;6.20;;;;;;;36.17;27.15;100667.61;107601;1250;63013;-73
2022/06/30 10:58:35;;;;;;;9.30;6.30;;;;;;;35.58;27.80;100669.17;107471;1247;62613;-74
2022/06/30 11:01:11;;;;;;;11.60;6.30;;;;;;;35.56;27.69;100667.20;107616;1247;59585;-73
2022/06/30 11:03:59;;;;;;;8.60;7.10;;;;;;;36.22;27.10;100667.26;107516;1250;63243;-74
2022/06/30 11:07:01;;;;;;;7.50;6.30;;;;;;;36.80;25.96;100661.91;107695;1246;58312;-75
2022/06/30 11:09:43;;;;;;;6.60;5.90;;;;;;;36.92;26.14;100661.88;107504;1251;58888;-73
2022/06/30 11:12:13;;;;;;;8.90;7.30;;;;;;;36.98;26.26;100669.10;107658;1247;63799;-74
2022/06/30 11:14:55;;;;;;;6.70;6.10;;;;;;;36.31;27.28;100670.67;107395;1251;61667;-72
2022/06/30 11:17:31;;;;;;;8.90;6.30;;;;;;;36.10;27.52;100667.77;107648;1248;61703;-73
2022/06/30 11:20:14;;;;;;;11.00;6.60;;;;;;;36.05;27.68;100662.31;107677;1250;74287;-73
2022/06/30 11:22:44;;;;;;;7.10;5.90;;;;;;;36.47;27.35;100659.23;107671;1248;59512;-78
2022/06/30 11:28:42;;;;;;;15.10;7.00;;;;;;;37.90;26.28;100653.54;106996;1251;63648;-71
2022/06/30 11:31:27;;;;;;;;;;;;;;;38.04;25.72;100648.09;107619;1247;72280;-76
2022/06/30 11:34:05;;;;;;;7.90;5.50;;;;;;;37.92;25.46;100656.11;107797;1247;71255;-78
2022/06/30 11:36:37;;;;;;;8.40;6.20;;;;;;;37.85;25.58;100657.89;107559;1247;63707;-73
2022/06/30 11:39:12;;;;;;;9.30;5.70;;;;;;;37.59;25.43;100655.40;107238;1251;59590;-73
2022/06/30 11:41:56;;;;;;;6.10;5.30;;;;;;;37.78;25.47;100649.70;107321;1251;59702;-74
2022/06/30 11:44:33;;;;;;;7.90;5.90;;;;;;;37.83;25.19;100651.27;107388;1250;74710;-73
2022/06/30 11:47:04;;;;;;;11.30;5.40;;;;;;;38.18;25.13;100652.36;107634;1248;72374;-69